Time;durP1;ratioP1;P1;durP2;ratioP2;P2;SDS_P1;SDS_P2;PMS_P1;PMS_P2;Temp;Humidity;BMP_temperature;BMP_pressure;BME280_temperature;BME280_humidity;BME280_pressure;Samples;Min_cycle;Max_cycle;Signal;HPM_P1;HPM_P2
2022/04/27 00:00:25;;;;;;;13.25;2.50;;;22.30;57.50;;;;;;4932483;29;20032;-71
2022/04/27 00:02:51;;;;;;;11.70;3.05;;;22.30;57.50;;;;;;4933571;29;20032;-71
2022/04/27 00:05:18;;;;;;;10.65;2.97;;;22.30;57.60;;;;;;4934066;29;20042;-71
2022/04/27 00:07:44;;;;;;;12.43;2.47;;;22.30;57.50;;;;;;4933420;29;20027;-71
2022/04/27 00:10:10;;;;;;;12.20;2.75;;;22.30;57.50;;;;;;4933961;29;20039;-71
2022/04/27 00:12:37;;;;;;;9.13;2.42;;;22.30;57.60;;;;;;4916743;29;20091;-71
2022/04/27 00:15:04;;;;;;;9.48;2.53;;;22.30;57.50;;;;;;4933660;29;20442;-71
2022/04/27 00:17:30;;;;;;;9.13;2.22;;;22.30;57.50;;;;;;4933818;29;20471;-72
2022/04/27 00:19:56;;;;;;;10.93;2.80;;;22.30;57.50;;;;;;4933980;29;20123;-71
2022/04/27 00:22:22;;;;;;;7.78;2.13;;;22.30;57.50;;;;;;4933673;29;20036;-72
2022/04/27 00:24:48;;;;;;;7.35;2.50;;;22.30;57.60;;;;;;4933788;29;20378;-71
2022/04/27 00:27:15;;;;;;;8.50;2.58;;;22.30;57.50;;;;;;4933646;29;20035;-72
2022/04/27 00:29:41;;;;;;;7.68;2.63;;;22.30;57.50;;;;;;4933847;29;20384;-72
2022/04/27 00:32:06;;;;;;;13.32;2.33;;;22.30;57.50;;;;;;4916496;29;20032;-72
2022/04/27 00:34:32;;;;;;;5.70;2.10;;;22.30;57.50;;;;;;4933531;29;20035;-72
2022/04/27 00:36:58;;;;;;;9.10;2.58;;;22.30;57.50;;;;;;4932500;29;20032;-72
2022/04/27 00:39:24;;;;;;;4.43;2.28;;;22.30;57.50;;;;;;4933704;29;20044;-72
2022/04/27 00:42:02;;;;;;;5.70;2.40;;;22.30;57.60;;;;;;4916640;29;20059;-71
2022/04/27 00:44:32;;;;;;;9.93;2.53;;;22.30;57.50;;;;;;4933226;29;20118;-72
2022/04/27 00:46:59;;;;;;;8.18;2.53;;;22.30;57.50;;;;;;4932980;29;20035;-71
2022/04/27 00:49:26;;;;;;;6.40;2.50;;;22.30;57.50;;;;;;4933517;29;20032;-71
2022/04/27 00:51:53;;;;;;;6.22;2.28;;;22.30;57.70;;;;;;4933461;29;20032;-71
2022/04/27 00:54:22;;;;;;;9.05;2.35;;;22.30;57.80;;;;;;4933102;29;20350;-71
2022/04/27 00:56:51;;;;;;;8.73;2.92;;;22.30;57.70;;;;;;4932372;29;20060;-72
2022/04/27 00:59:18;;;;;;;7.57;2.78;;;22.30;57.80;;;;;;4932244;29;20027;-72
2022/04/27 01:01:44;;;;;;;6.78;2.20;;;22.30;58.00;;;;;;4933755;29;20429;-72
2022/04/27 01:04:09;;;;;;;5.60;2.40;;;22.30;58.00;;;;;;4931770;29;20110;-72
2022/04/27 01:06:36;;;;;;;6.93;2.33;;;22.30;58.10;;;;;;4932534;29;20106;-72
2022/04/27 01:09:03;;;;;;;7.65;2.42;;;22.30;58.00;;;;;;4932092;29;20039;-72
2022/04/27 01:11:31;;;;;;;4.80;2.38;;;22.30;58.00;;;;;;4932387;29;20063;-72
2022/04/27 01:13:57;;;;;;;6.90;2.30;;;22.30;58.00;;;;;;4935350;29;20047;-72
2022/04/27 01:16:23;;;;;;;9.35;2.25;;;22.30;58.00;;;;;;4935383;29;20032;-72
2022/04/27 01:18:52;;;;;;;8.15;2.55;;;22.30;58.10;;;;;;4935297;29;20031;-71
2022/04/27 01:21:20;;;;;;;6.95;2.33;;;22.30;58.10;;;;;;4919969;29;20036;-72
2022/04/27 01:23:58;;;;;;;5.50;2.25;;;22.30;58.10;;;;;;4936290;29;20027;-72
2022/04/27 01:26:24;;;;;;;10.00;2.20;;;22.30;58.10;;;;;;4935566;29;20111;-72
2022/04/27 01:28:50;;;;;;;6.35;2.55;;;22.30;58.10;;;;;;4935147;29;20028;-72
2022/04/27 01:31:16;;;;;;;3.92;2.10;;;22.30;58.00;;;;;;4935287;29;20027;-71
2022/04/27 01:33:42;;;;;;;4.88;2.35;;;22.30;58.10;;;;;;4918930;29;20404;-72
2022/04/27 01:36:10;;;;;;;5.43;2.38;;;22.30;58.10;;;;;;4936604;29;20032;-71
2022/04/27 01:38:37;;;;;;;6.40;2.20;;;22.30;58.20;;;;;;4935310;29;20032;-71
2022/04/27 01:41:04;;;;;;;6.22;2.30;;;22.30;58.10;;;;;;4919464;29;20031;-71
2022/04/27 01:43:30;;;;;;;6.35;2.38;;;22.30;58.10;;;;;;4934846;29;20062;-71
2022/04/27 01:45:56;;;;;;;4.80;2.00;;;22.30;58.10;;;;;;4935072;29;20541;-72
2022/04/27 01:48:23;;;;;;;8.63;2.30;;;22.30;58.10;;;;;;4919215;29;20028;-71
2022/04/27 01:50:49;;;;;;;6.43;2.38;;;22.30;58.20;;;;;;4935102;29;20070;-71
2022/04/27 01:56:00;;;;;;;5.25;2.00;;;22.30;58.20;;;;;;4934869;29;20032;-72
2022/04/27 01:58:31;;;;;;;6.43;2.10;;;22.30;58.20;;;;;;4934734;29;20087;-71
2022/04/27 02:00:58;;;;;;;6.40;2.30;;;22.30;58.20;;;;;;4934894;29;20039;-71
2022/04/27 02:03:24;;;;;;;7.47;2.47;;;22.30;58.30;;;;;;4934554;29;20492;-72
2022/04/27 02:05:52;;;;;;;5.75;2.03;;;22.30;58.40;;;;;;4936078;29;20027;-71
2022/04/27 02:08:20;;;;;;;9.40;2.80;;;22.30;58.30;;;;;;4934803;29;20024;-71
2022/04/27 02:10:46;;;;;;;9.65;2.55;;;22.30;58.30;;;;;;4934553;29;20024;-71
2022/04/27 02:13:12;;;;;;;7.60;2.10;;;22.30;58.30;;;;;;4934237;29;20035;-71
2022/04/27 02:15:38;;;;;;;5.03;2.38;;;22.30;58.30;;;;;;4934704;29;20500;-72
2022/04/27 02:18:19;;;;;;;6.63;2.25;;;22.30;58.30;;;;;;4934511;29;20040;-72
2022/04/27 02:20:48;;;;;;;6.75;2.38;;;22.30;58.20;;;;;;4934407;29;20035;-72
2022/04/27 02:23:13;;;;;;;5.10;2.30;;;22.30;59.00;;;;;;4933746;29;20035;-72
2022/04/27 02:25:39;;;;;;;6.65;2.05;;;22.30;58.20;;;;;;4918611;29;20111;-72
2022/04/27 02:28:08;;;;;;;6.70;2.05;;;22.30;58.10;;;;;;4918132;29;20028;-71
2022/04/27 02:30:34;;;;;;;5.45;2.30;;;22.30;58.20;;;;;;4934395;29;20031;-71
2022/04/27 02:32:59;;;;;;;4.53;2.05;;;22.30;58.30;;;;;;4918165;29;20027;-71
2022/04/27 02:35:26;;;;;;;6.13;1.98;;;22.30;58.30;;;;;;4934546;29;20301;-71
2022/04/27 02:37:52;;;;;;;5.97;2.35;;;22.30;58.30;;;;;;4934354;29;20032;-71
2022/04/27 02:40:18;;;;;;;5.82;2.25;;;22.20;58.40;;;;;;4934009;29;20032;-71
2022/04/27 02:42:44;;;;;;;10.35;2.10;;;22.30;58.30;;;;;;4933814;29;20051;-72
2022/04/27 02:45:12;;;;;;;6.18;2.20;;;22.30;58.30;;;;;;4934130;29;20094;-71
2022/04/27 02:47:38;;;;;;;5.57;2.22;;;22.30;58.20;;;;;;4934348;29;20484;-73
2022/04/27 02:52:57;;;;;;;4.53;2.30;;;22.30;58.20;;;;;;4933617;29;20039;-73
2022/04/27 02:55:26;;;;;;;4.20;2.10;;;22.30;58.40;;;;;;4930544;29;20063;-73
2022/04/27 02:57:52;;;;;;;6.63;2.28;;;22.30;58.40;;;;;;4933408;29;20063;-72
2022/04/27 03:00:19;;;;;;;5.75;2.40;;;22.30;58.40;;;;;;4935577;29;20039;-72
2022/04/27 03:02:45;;;;;;;4.18;1.90;;;22.30;58.40;;;;;;4952061;29;20082;-72
2022/04/27 03:05:10;;;;;;;4.95;2.20;;;22.30;58.30;;;;;;4952451;29;20039;-72
2022/04/27 03:07:37;;;;;;;5.68;2.13;;;22.30;58.30;;;;;;4952779;29;20046;-72
2022/04/27 03:10:04;;;;;;;4.80;2.00;;;22.30;58.30;;;;;;4954550;29;20384;-72
2022/04/27 03:12:31;;;;;;;4.90;2.08;;;22.30;58.20;;;;;;4952715;29;20058;-72
2022/04/27 03:14:58;;;;;;;5.47;2.47;;;22.30;58.20;;;;;;4952396;29;20085;-72
2022/04/27 03:17:24;;;;;;;4.13;1.90;;;22.30;58.30;;;;;;4952524;29;20571;-72
2022/04/27 03:19:50;;;;;;;5.55;2.22;;;22.30;58.30;;;;;;4952707;29;20488;-72
2022/04/27 03:22:16;;;;;;;5.85;1.90;;;22.30;58.40;;;;;;4952473;29;20042;-72
2022/04/27 03:24:42;;;;;;;5.22;2.25;;;22.30;58.20;;;;;;4936139;29;20095;-72
2022/04/27 03:27:18;;;;;;;3.58;2.13;;;22.30;58.20;;;;;;4952413;29;20400;-72
2022/04/27 03:29:46;;;;;;;4.60;2.05;;;22.30;58.20;;;;;;4936866;29;20608;-73
2022/04/27 03:32:13;;;;;;;5.47;2.33;;;22.30;58.20;;;;;;4952894;29;20027;-72
2022/04/27 03:34:43;;;;;;;7.03;1.90;;;22.30;58.20;;;;;;4951484;28;20039;-72
2022/04/27 03:37:12;;;;;;;5.57;2.20;;;22.30;58.20;;;;;;4952468;29;20031;-72
2022/04/27 03:39:37;;;;;;;5.53;2.05;;;22.30;58.30;;;;;;4952585;29;20130;-72
2022/04/27 03:42:04;;;;;;;4.32;2.20;;;22.30;58.30;;;;;;4952122;29;20038;-72
2022/04/27 03:44:31;;;;;;;4.65;1.77;;;22.30;58.30;;;;;;4951603;29;20036;-72
2022/04/27 03:46:57;;;;;;;9.90;1.80;;;22.30;58.20;;;;;;4952348;29;20034;-72
2022/04/27 03:49:23;;;;;;;7.60;2.25;;;22.30;58.20;;;;;;4952109;29;20035;-71
2022/04/27 03:51:49;;;;;;;6.65;2.00;;;22.30;58.30;;;;;;4952217;29;20031;-72
2022/04/27 03:54:17;;;;;;;5.80;2.13;;;22.30;58.40;;;;;;4951490;29;20035;-72
2022/04/27 03:56:43;;;;;;;8.07;2.40;;;22.30;58.40;;;;;;4952209;29;20432;-72
2022/04/27 03:59:11;;;;;;;7.72;2.10;;;22.30;58.50;;;;;;4951792;29;20027;-72
2022/04/27 04:01:37;;;;;;;5.15;2.03;;;22.30;58.50;;;;;;4951929;29;20118;-72
2022/04/27 04:04:03;;;;;;;5.43;1.85;;;22.30;58.30;;;;;;4951762;29;20066;-72
2022/04/27 04:06:29;;;;;;;5.10;1.98;;;22.30;58.40;;;;;;4952136;29;20488;-72
2022/04/27 04:08:55;;;;;;;5.72;2.22;;;22.30;58.40;;;;;;4951677;29;20027;-72
2022/04/27 04:11:21;;;;;;;9.75;2.05;;;22.30;58.60;;;;;;4953085;29;20431;-72
2022/04/27 04:14:05;;;;;;;6.30;1.80;;;22.30;59.20;;;;;;4951447;29;20031;-72
2022/04/27 04:16:39;;;;;;;4.03;1.90;;;22.30;58.50;;;;;;4951914;29;20078;-72
2022/04/27 04:19:24;;;;;;;4.88;2.00;;;22.30;58.50;;;;;;4952916;29;20081;-72
2022/04/27 04:22:08;;;;;;;5.40;1.92;;;22.30;58.40;;;;;;4952726;28;20043;-72
2022/04/27 04:30:25;;;;;;;4.88;2.15;;;22.30;58.40;;;;;;4952823;28;20019;-72
2022/04/27 04:33:06;;;;;;;6.43;2.17;;;22.30;58.40;;;;;;4951433;29;20131;-72
2022/04/27 04:35:36;;;;;;;7.50;2.17;;;22.30;58.30;;;;;;4952925;29;20031;-72
2022/04/27 04:38:04;;;;;;;4.47;1.80;;;22.30;58.20;;;;;;4935518;29;20523;-72
2022/04/27 04:40:30;;;;;;;3.35;1.73;;;22.30;58.40;;;;;;4951630;29;20066;-72
2022/04/27 04:42:56;;;;;;;6.55;2.55;;;22.30;58.40;;;;;;4951045;29;20049;-72
2022/04/27 04:45:25;;;;;;;5.70;2.45;;;22.30;58.20;;;;;;4951606;28;20036;-72
2022/04/27 04:47:58;;;;;;;4.50;2.30;;;22.30;58.30;;;;;;4956591;28;20063;-72
2022/04/27 04:50:33;;;;;;;3.08;2.28;;;22.30;58.40;;;;;;4956630;29;20103;-72
2022/04/27 04:53:10;;;;;;;3.75;2.00;;;22.30;58.40;;;;;;4956080;29;20038;-72
2022/04/27 04:55:48;;;;;;;7.78;1.98;;;22.30;58.30;;;;;;4956491;29;20074;-72
2022/04/27 04:58:33;;;;;;;5.43;2.00;;;22.30;58.20;;;;;;4956430;28;20388;-71
2022/04/27 05:01:12;;;;;;;4.15;2.10;;;22.30;58.20;;;;;;4955070;29;20039;-73
2022/04/27 05:03:53;;;;;;;8.70;2.00;;;22.30;58.40;;;;;;4954377;29;20035;-72
2022/04/27 05:06:50;;;;;;;4.47;2.10;;;22.30;58.40;;;;;;4955069;29;20400;-72
2022/04/27 05:09:32;;;;;;;5.03;2.05;;;22.30;58.50;;;;;;4956132;29;20257;-73
2022/04/27 05:12:22;;;;;;;8.03;2.07;;;22.30;58.50;;;;;;4946347;29;20039;-73
2022/04/27 05:15:08;;;;;;;4.50;2.20;;;22.30;58.40;;;;;;4956476;28;20038;-74
2022/04/27 05:17:57;;;;;;;3.63;2.10;;;22.30;58.40;;;;;;4937152;29;20043;-74
2022/04/27 05:20:40;;;;;;;4.88;1.95;;;22.30;58.40;;;;;;4954546;29;20042;-74
2022/04/27 05:23:16;;;;;;;5.57;2.03;;;22.30;58.40;;;;;;4954288;29;20532;-73
2022/04/27 05:26:00;;;;;;;5.18;2.03;;;22.30;58.40;;;;;;4954836;29;20042;-73
2022/04/27 05:31:59;;;;;;;3.85;1.75;;;22.30;58.20;;;;;;4950842;28;20047;-73
2022/04/27 05:34:37;;;;;;;4.28;2.00;;;22.30;58.40;;;;;;4954149;29;20499;-73
2022/04/27 05:37:16;;;;;;;6.35;2.20;;;22.30;58.40;;;;;;4954566;29;20042;-72
2022/04/27 05:40:12;;;;;;;3.97;1.75;;;22.30;58.40;;;;;;4946626;29;20054;-72
2022/04/27 05:42:57;;;;;;;4.72;2.33;;;22.30;58.50;;;;;;4924723;29;20035;-72
2022/04/27 05:45:42;;;;;;;4.43;2.08;;;22.30;58.40;;;;;;4955670;29;20114;-72
2022/04/27 05:48:33;;;;;;;3.85;2.08;;;22.30;58.30;;;;;;4954330;28;20036;-72
2022/04/27 05:51:25;;;;;;;3.38;2.00;;;22.30;58.50;;;;;;4947147;28;20039;-71
2022/04/27 05:54:10;;;;;;;6.03;2.30;;;22.30;58.30;;;;;;4954912;28;20094;-72
2022/04/27 05:56:36;;;;;;;4.65;2.00;;;22.30;58.30;;;;;;4955434;29;20035;-72
2022/04/27 05:59:17;;;;;;;3.83;1.90;;;22.30;58.20;;;;;;4954531;28;20035;-72
2022/04/27 06:02:01;;;;;;;5.60;2.10;;;22.30;58.20;;;;;;4955178;28;20024;-72
2022/04/27 06:04:29;;;;;;;4.50;2.17;;;22.30;58.20;;;;;;4953547;29;20073;-72
2022/04/27 06:06:54;;;;;;;5.32;1.98;;;22.30;58.10;;;;;;4955126;29;20055;-72
2022/04/27 06:09:21;;;;;;;6.85;2.20;;;22.20;58.10;;;;;;4954050;29;20379;-72
2022/04/27 06:12:07;;;;;;;2.92;1.80;;;22.30;58.20;;;;;;4953938;29;20023;-73
2022/04/27 06:14:42;;;;;;;4.28;2.00;;;22.30;58.10;;;;;;4954516;29;20506;-74
2022/04/27 06:17:17;;;;;;;4.10;1.85;;;22.30;58.20;;;;;;4954442;29;20370;-73
2022/04/27 06:19:44;;;;;;;10.70;2.28;;;22.30;58.20;;;;;;4953548;29;20034;-74
2022/04/27 06:22:12;;;;;;;3.83;2.00;;;22.30;58.30;;;;;;4953710;29;20516;-74
2022/04/27 06:24:39;;;;;;;3.97;2.20;;;22.30;58.40;;;;;;4953136;29;20042;-73
2022/04/27 06:27:25;;;;;;;2.97;1.80;;;22.30;58.40;;;;;;4936966;29;20350;-74
2022/04/27 06:29:52;;;;;;;5.10;2.00;;;22.30;58.40;;;;;;4921365;29;20082;-74
2022/04/27 06:32:17;;;;;;;5.60;1.90;;;22.30;58.40;;;;;;4953469;29;20034;-73
2022/04/27 06:34:44;;;;;;;4.20;1.95;;;22.40;58.40;;;;;;4952762;29;20033;-73
2022/04/27 06:37:11;;;;;;;4.63;2.20;;;22.40;58.70;;;;;;4953027;29;20451;-73
2022/04/27 06:39:40;;;;;;;9.32;2.08;;;22.40;58.80;;;;;;4952984;29;20035;-73
2022/04/27 06:42:07;;;;;;;5.25;2.28;;;22.40;59.00;;;;;;4953275;29;20039;-73
2022/04/27 06:44:35;;;;;;;4.60;2.00;;;22.40;58.90;;;;;;4954012;29;20027;-73
2022/04/27 06:47:19;;;;;;;8.43;2.42;;;22.40;59.10;;;;;;4954479;28;20118;-73
2022/04/27 06:50:06;;;;;;;5.90;2.17;;;22.40;59.00;;;;;;4953848;28;20111;-73
2022/04/27 06:52:52;;;;;;;5.45;1.73;;;22.40;58.90;;;;;;4953034;29;20388;-73
2022/04/27 06:55:37;;;;;;;5.68;2.42;;;22.40;59.00;;;;;;4952941;29;20408;-73
2022/04/27 06:58:29;;;;;;;4.40;2.03;;;22.40;58.80;;;;;;4952622;29;20039;-73
2022/04/27 07:01:00;;;;;;;2.92;1.70;;;22.40;58.70;;;;;;4937683;29;20436;-73
2022/04/27 07:03:28;;;;;;;4.43;1.90;;;22.40;58.70;;;;;;4952421;29;20081;-73
2022/04/27 07:05:54;;;;;;;5.10;1.90;;;22.40;58.90;;;;;;4953987;29;20031;-73
2022/04/27 07:08:20;;;;;;;6.50;2.78;;;22.40;59.10;;;;;;4952807;29;20033;-73
2022/04/27 07:10:45;;;;;;;3.72;2.00;;;22.40;58.80;;;;;;4951628;28;20283;-74
2022/04/27 07:13:11;;;;;;;7.72;2.17;;;22.40;58.70;;;;;;4953257;29;20019;-71
2022/04/27 07:15:37;;;;;;;6.55;2.40;;;22.50;58.50;;;;;;4952679;29;20041;-72
2022/04/27 07:18:02;;;;;;;10.63;5.50;;;22.40;55.80;;;;;;4954089;29;20351;-71
2022/04/27 07:20:28;;;;;;;9.57;5.13;;;22.30;48.60;;;;;;4952404;29;20031;-71
2022/04/27 07:22:54;;;;;;;10.23;4.82;;;22.20;46.60;;;;;;4953265;29;20395;-72
2022/04/27 07:25:19;;;;;;;11.10;5.28;;;22.10;46.10;;;;;;4953500;29;20035;-71
2022/04/27 07:27:45;;;;;;;13.10;6.07;;;21.70;41.80;;;;;;4952220;29;20106;-72
2022/04/27 07:30:11;;;;;;;10.68;5.78;;;21.20;38.90;;;;;;4953588;28;20031;-73
2022/04/27 07:32:37;;;;;;;9.48;5.00;;;21.30;41.10;;;;;;4953374;28;20045;-73
2022/04/27 07:35:03;;;;;;;9.57;4.40;;;21.50;43.60;;;;;;4951970;29;20471;-73
2022/04/27 07:37:29;;;;;;;11.27;5.22;;;21.60;43.50;;;;;;4953462;28;20027;-73
2022/04/27 07:39:54;;;;;;;11.35;5.47;;;21.80;46.10;;;;;;4953375;29;20396;-74
2022/04/27 07:42:21;;;;;;;9.95;4.95;;;21.90;45.60;;;;;;4953480;29;20035;-73
2022/04/27 07:44:47;;;;;;;10.32;4.18;;;22.00;47.00;;;;;;4950034;29;20035;-73
2022/04/27 07:47:13;;;;;;;8.93;3.65;;;22.10;45.90;;;;;;4953487;28;20035;-73
2022/04/27 07:49:39;;;;;;;10.80;3.30;;;22.10;45.20;;;;;;4953165;28;20019;-73
2022/04/27 07:52:04;;;;;;;10.05;4.00;;;22.20;45.80;;;;;;4953132;28;20097;-73
2022/04/27 07:54:30;;;;;;;11.07;3.25;;;22.20;46.10;;;;;;4946704;28;20365;-74
2022/04/27 07:56:56;;;;;;;11.23;2.78;;;22.20;46.50;;;;;;4950719;28;20027;-73
2022/04/27 07:59:21;;;;;;;13.02;3.00;;;22.30;47.00;;;;;;4942455;29;20054;-73
2022/04/27 08:01:47;;;;;;;10.57;3.13;;;22.30;47.20;;;;;;4935802;29;20101;-74
2022/04/27 08:04:13;;;;;;;5.40;2.78;;;22.30;47.40;;;;;;4952576;28;20063;-74
2022/04/27 08:06:40;;;;;;;8.45;2.70;;;22.30;47.50;;;;;;4952168;29;20330;-74
2022/04/27 08:09:06;;;;;;;9.10;2.60;;;22.40;47.70;;;;;;4951813;29;20028;-75
2022/04/27 08:11:34;;;;;;;9.90;2.10;;;22.40;47.80;;;;;;4953123;28;20434;-74
2022/04/27 08:14:03;;;;;;;9.27;2.40;;;22.40;48.00;;;;;;4948174;29;20469;-73
2022/04/27 08:16:29;;;;;;;8.75;2.45;;;22.40;48.10;;;;;;4948160;29;20047;-74
2022/04/27 08:18:54;;;;;;;9.05;2.63;;;22.40;48.20;;;;;;4953246;29;20483;-74
2022/04/27 08:21:21;;;;;;;5.72;1.98;;;22.40;48.30;;;;;;4954297;28;20039;-74
2022/04/27 08:23:48;;;;;;;5.38;2.20;;;22.40;48.50;;;;;;4955385;29;20039;-74
2022/04/27 08:26:14;;;;;;;6.03;2.05;;;22.40;48.50;;;;;;4957084;29;20059;-74
2022/04/27 08:28:41;;;;;;;5.82;1.98;;;22.40;49.20;;;;;;4956878;28;20035;-74
2022/04/27 08:31:08;;;;;;;11.02;2.22;;;22.40;48.60;;;;;;4951659;29;20366;-74
2022/04/27 08:33:35;;;;;;;3.50;1.90;;;22.40;48.80;;;;;;4942214;28;20081;-74
2022/04/27 08:36:03;;;;;;;6.32;2.03;;;22.40;48.90;;;;;;4955861;29;20035;-74
2022/04/27 08:38:29;;;;;;;9.15;1.77;;;22.40;49.00;;;;;;4956370;29;20127;-74
2022/04/27 08:40:55;;;;;;;3.30;1.67;;;22.40;49.00;;;;;;4961075;28;20122;-74
2022/04/27 08:43:22;;;;;;;5.07;1.83;;;22.40;49.10;;;;;;4967479;28;20077;-74
2022/04/27 08:45:48;;;;;;;7.93;2.00;;;22.40;49.70;;;;;;4961620;28;20027;-74
2022/04/27 08:48:18;;;;;;;4.78;2.20;;;22.40;49.10;;;;;;4955399;28;20026;-75
2022/04/27 08:50:45;;;;;;;11.30;2.25;;;22.40;48.60;;;;;;4956534;29;20447;-73
2022/04/27 08:53:11;;;;;;;13.43;1.95;;;22.40;49.00;;;;;;4956079;29;20028;-75
2022/04/27 08:55:39;;;;;;;8.27;1.90;;;22.40;49.00;;;;;;4956567;28;20594;-73
2022/04/27 08:58:16;;;;;;;7.50;1.70;;;22.40;49.10;;;;;;4956403;28;20428;-75
2022/04/27 09:00:44;;;;;;;6.70;1.65;;;22.40;49.30;;;;;;4961951;28;20033;-74
2022/04/27 09:03:26;;;;;;;6.95;2.13;;;22.50;49.50;;;;;;4973872;28;20435;-74
2022/04/27 09:05:55;;;;;;;9.70;1.85;;;22.40;49.70;;;;;;4954110;28;20106;-74
2022/04/27 09:08:23;;;;;;;7.10;1.70;;;22.40;50.10;;;;;;4936924;29;20031;-75
2022/04/27 09:10:49;;;;;;;3.58;2.10;;;22.40;50.30;;;;;;4944730;29;20086;-74
2022/04/27 09:13:15;;;;;;;3.97;1.70;;;22.50;50.60;;;;;;4954503;29;20472;-74
2022/04/27 09:15:44;;;;;;;7.07;2.00;;;22.40;50.60;;;;;;4939083;29;20078;-74
2022/04/27 09:21:03;;;;;;;4.50;1.92;;;22.40;50.60;;;;;;4966588;28;20037;-74
2022/04/27 09:23:45;;;;;;;4.38;1.80;;;22.50;50.70;;;;;;4940776;29;20036;-74
2022/04/27 09:26:19;;;;;;;5.43;2.00;;;22.50;50.80;;;;;;4936681;29;20035;-74
2022/04/27 09:28:55;;;;;;;3.58;1.70;;;22.50;50.80;;;;;;4948932;29;20539;-74
2022/04/27 09:31:32;;;;;;;6.50;1.98;;;22.50;51.00;;;;;;4936736;29;20024;-74
2022/04/27 09:34:27;;;;;;;9.15;1.83;;;22.50;51.10;;;;;;4918088;29;20032;-74
2022/04/27 09:37:00;;;;;;;4.22;1.75;;;22.50;51.10;;;;;;4946802;29;20031;-75
2022/04/27 09:39:26;;;;;;;4.15;1.67;;;22.50;51.20;;;;;;4946550;28;20506;-74
2022/04/27 09:41:52;;;;;;;6.63;1.70;;;22.50;51.30;;;;;;4948216;29;20110;-74
2022/04/27 09:44:28;;;;;;;6.00;1.90;;;22.50;51.20;;;;;;4949255;29;20147;-73
2022/04/27 09:46:54;;;;;;;9.57;2.15;;;22.50;51.40;;;;;;4939594;29;20041;-73
2022/04/27 09:49:20;;;;;;;6.25;1.75;;;22.50;51.50;;;;;;4947940;29;20020;-72
2022/04/27 09:51:52;;;;;;;5.32;2.03;;;22.50;51.70;;;;;;4954575;29;20115;-72
2022/04/27 09:54:19;;;;;;;6.10;1.58;;;22.50;51.70;;;;;;4935530;29;20031;-73
2022/04/27 09:56:51;;;;;;;5.70;1.80;;;22.50;51.70;;;;;;4933905;29;20499;-72
2022/04/27 09:59:20;;;;;;;4.57;1.63;;;22.50;51.70;;;;;;4938281;29;20353;-72
2022/04/27 10:01:48;;;;;;;4.72;1.73;;;22.50;51.70;;;;;;4945955;29;20046;-72
2022/04/27 10:04:18;;;;;;;5.35;1.85;;;22.50;51.90;;;;;;4954701;29;20035;-72
2022/04/27 10:06:45;;;;;;;3.42;1.65;;;22.60;52.00;;;;;;4936188;29;20493;-72
2022/04/27 10:09:11;;;;;;;6.43;1.65;;;22.50;52.00;;;;;;4941072;28;20543;-71
2022/04/27 10:11:37;;;;;;;4.50;1.85;;;22.50;52.10;;;;;;4955020;28;20031;-71
2022/04/27 10:14:03;;;;;;;5.65;1.80;;;22.50;52.00;;;;;;4943249;28;20024;-72
2022/04/27 10:16:30;;;;;;;3.45;1.83;;;22.50;52.10;;;;;;4919130;29;20114;-72
2022/04/27 10:18:56;;;;;;;3.25;1.50;;;22.60;52.10;;;;;;4952926;29;20031;-72
2022/04/27 10:21:58;;;;;;;3.70;1.50;;;22.60;52.20;;;;;;4947950;28;20078;-72
2022/04/27 10:24:41;;;;;;;6.30;1.48;;;22.50;52.20;;;;;;4943081;29;20089;-74
2022/04/27 10:27:14;;;;;;;6.65;1.80;;;22.50;52.10;;;;;;4952799;28;20365;-74
2022/04/27 10:29:40;;;;;;;10.57;1.77;;;22.50;51.00;;;;;;4950117;29;20396;-74
2022/04/27 10:32:06;;;;;;;5.43;1.80;;;22.50;51.80;;;;;;4950808;29;20023;-74
2022/04/27 10:34:33;;;;;;;8.23;1.70;;;22.40;50.00;;;;;;4952814;29;20038;-74
2022/04/27 10:37:03;;;;;;;5.72;1.67;;;22.40;48.30;;;;;;4947954;29;20540;-74
2022/04/27 10:39:33;;;;;;;5.45;1.80;;;22.40;46.10;;;;;;4944665;29;20031;-73
2022/04/27 10:42:05;;;;;;;;;;;22.30;45.00;;;;;;4944184;29;20031;-73
2022/04/27 10:44:53;;;;;;;16.20;1.80;;;22.30;45.20;;;;;;4953380;28;20389;-73
2022/04/27 10:47:22;;;;;;;5.05;2.40;;;22.40;46.00;;;;;;4953130;28;20140;-72
2022/04/27 10:50:08;;;;;;;6.40;1.80;;;22.40;44.90;;;;;;4937373;29;20507;-72
2022/04/27 10:52:50;;;;;;;5.60;2.00;;;22.40;44.40;;;;;;4954246;29;20051;-72
2022/04/27 10:55:35;;;;;;;4.72;1.60;;;22.40;44.70;;;;;;4953110;28;20106;-72
2022/04/27 10:58:14;;;;;;;6.38;1.67;;;22.40;45.10;;;;;;4954355;28;20118;-72
2022/04/27 11:00:58;;;;;;;4.40;1.83;;;22.40;45.60;;;;;;4953008;29;20392;-72
2022/04/27 11:03:25;;;;;;;5.60;1.85;;;22.40;45.70;;;;;;4952930;29;20043;-73
2022/04/27 11:05:52;;;;;;;3.97;1.58;;;22.40;46.10;;;;;;4921092;29;20396;-72
2022/04/27 11:08:47;;;;;;;2.95;1.63;;;22.40;46.10;;;;;;4954062;29;20027;-72
2022/04/27 11:11:16;;;;;;;3.90;1.73;;;22.40;46.50;;;;;;4954002;28;20030;-72
2022/04/27 11:13:42;;;;;;;5.90;1.70;;;22.40;46.50;;;;;;4953775;28;20042;-72
2022/04/27 11:16:13;;;;;;;3.78;1.40;;;22.40;46.80;;;;;;4953799;28;20267;-72
2022/04/27 11:18:52;;;;;;;4.70;1.45;;;22.40;46.90;;;;;;4953905;28;20086;-72
2022/04/27 11:21:19;;;;;;;4.60;1.40;;;22.40;47.00;;;;;;4952617;29;20035;-72
2022/04/27 11:23:46;;;;;;;4.63;1.50;;;22.40;47.20;;;;;;4953569;28;20519;-73
2022/04/27 11:26:13;;;;;;;6.13;1.80;;;22.50;47.30;;;;;;4953771;28;20425;-72
2022/04/27 11:28:44;;;;;;;2.85;1.33;;;22.50;47.40;;;;;;4953615;28;20035;-72
2022/04/27 11:31:11;;;;;;;3.20;1.60;;;22.40;47.50;;;;;;4953550;28;20498;-72
2022/04/27 11:33:40;;;;;;;5.85;1.77;;;22.40;47.60;;;;;;4953555;28;20031;-72
2022/04/27 11:36:28;;;;;;;2.60;1.48;;;22.40;47.80;;;;;;4953886;28;20031;-72
2022/04/27 11:38:55;;;;;;;4.30;1.38;;;22.40;47.80;;;;;;4953600;28;20075;-72
2022/04/27 11:41:24;;;;;;;3.45;1.50;;;22.40;47.90;;;;;;4953430;28;20089;-72
2022/04/27 11:43:54;;;;;;;4.37;1.80;;;22.50;48.10;;;;;;4952022;28;20042;-72
2022/04/27 11:46:20;;;;;;;;;;;22.40;48.10;;;;;;4952533;29;20033;-72
2022/04/27 11:48:51;;;;;;;6.45;1.42;;;22.40;48.20;;;;;;4936462;29;19910;-72
2022/04/27 11:51:17;;;;;;;2.22;1.23;;;22.40;48.30;;;;;;4936145;29;20499;-72
2022/04/27 11:53:48;;;;;;;4.38;1.60;;;22.40;48.40;;;;;;4952556;28;20516;-72
2022/04/27 11:56:16;;;;;;;2.63;1.30;;;22.40;48.40;;;;;;4952646;28;20043;-71
2022/04/27 11:58:44;;;;;;;3.28;1.40;;;22.40;48.50;;;;;;4952204;29;20550;-72
2022/04/27 12:01:09;;;;;;;6.25;1.77;;;22.40;48.60;;;;;;4935975;29;20035;-70
2022/04/27 12:03:41;;;;;;;4.05;1.48;;;22.40;48.60;;;;;;4951783;29;20393;-69
2022/04/27 12:06:09;;;;;;;5.65;1.70;;;22.40;46.80;;;;;;4953239;28;20173;-69
2022/04/27 12:08:40;;;;;;;3.65;1.70;;;22.40;47.20;;;;;;4951786;29;20657;-69
2022/04/27 12:11:06;;;;;;;10.93;2.10;;;22.40;48.10;;;;;;4945182;29;20544;-69
2022/04/27 12:13:34;;;;;;;3.40;1.67;;;22.40;47.40;;;;;;4941095;29;20110;-69
2022/04/27 12:16:00;;;;;;;9.77;2.22;;;22.40;43.10;;;;;;4942755;29;20031;-69
2022/04/27 12:18:27;;;;;;;14.30;2.83;;;22.40;45.00;;;;;;4941167;28;20532;-69
2022/04/27 12:20:57;;;;;;;12.85;2.50;;;22.40;46.10;;;;;;4934055;29;20035;-70
2022/04/27 12:23:56;;;;;;;14.10;2.83;;;22.40;45.60;;;;;;4940077;29;20034;-69
2022/04/27 12:26:23;;;;;;;6.93;2.10;;;22.40;46.20;;;;;;4940385;29;20051;-69
2022/04/27 12:29:48;;;;;;;8.50;2.10;;;22.40;44.80;;;;;;4940330;29;20023;-69
2022/04/27 12:32:14;;;;;;;7.07;2.33;;;22.40;46.20;;;;;;4944528;29;20038;-69
2022/04/27 12:37:31;;;;;;;4.18;1.85;;;22.30;44.40;;;;;;4953027;28;20102;-70
2022/04/27 12:40:10;;;;;;;6.88;1.65;;;22.30;43.70;;;;;;4942630;29;20135;-69
2022/04/27 12:42:37;;;;;;;;;;;22.30;42.70;;;;;;4943143;29;20374;-69
2022/04/27 12:45:09;;;;;;;4.30;1.60;;;22.20;42.80;;;;;;4941176;28;19914;-69
2022/04/27 12:47:47;;;;;;;7.70;1.70;;;22.30;42.70;;;;;;4941792;29;20134;-69
2022/04/27 12:50:13;;;;;;;9.48;2.20;;;22.20;42.70;;;;;;4941787;29;20057;-69
2022/04/27 12:52:39;;;;;;;9.20;1.77;;;22.20;41.50;;;;;;4941558;29;20477;-70
2022/04/27 12:55:10;;;;;;;3.53;1.50;;;22.30;42.00;;;;;;4942219;29;20050;-70
2022/04/27 12:57:43;;;;;;;3.05;1.40;;;22.20;41.60;;;;;;4940504;28;20035;-71
2022/04/27 13:00:09;;;;;;;4.50;1.75;;;22.20;40.70;;;;;;4940793;29;20507;-70
2022/04/27 13:02:35;;;;;;;3.38;1.70;;;22.20;40.80;;;;;;4940571;29;20051;-71
2022/04/27 13:05:00;;;;;;;4.28;1.58;;;22.20;40.80;;;;;;4939110;29;20072;-68
2022/04/27 13:07:26;;;;;;;5.13;1.55;;;22.20;40.50;;;;;;4943487;28;20473;-69
2022/04/27 13:12:37;;;;;;;3.83;1.48;;;22.20;40.20;;;;;;4943961;29;20024;-69
2022/04/27 13:15:04;;;;;;;6.63;2.50;;;22.30;39.90;;;;;;4946243;29;20066;-70
2022/04/27 13:17:30;;;;;;;8.23;2.20;;;22.10;38.00;;;;;;4954884;29;20040;-69
2022/04/27 13:19:56;;;;;;;10.98;2.45;;;22.20;38.20;;;;;;4952437;28;20032;-70
2022/04/27 13:22:23;;;;;;;5.93;2.22;;;22.20;38.80;;;;;;4953077;29;20066;-70
2022/04/27 13:24:50;;;;;;;6.32;2.35;;;22.20;39.40;;;;;;4952946;29;20066;-69